KSHR/SHR METAR and TAF weather

Enter ICAO airport designator
Station Type Date Time Source
KSHR METAR 2021/04/14 19:53 UTC NOAA

KSHR 141953Z AUTO 30004KT 10SM OVC037 03/M07 A3025 RMK AO2 SLP281 T00281072


Station Type Date Time Source
KSHR Decoded METAR 2021/04/14 19:53 UTC NOAA

SHERIDAN COUNTY AIRPORT, WY, United States (KSHR) 44-46N 106-58W 1202M
Apr 14, 2021 - 03:53 PM EDT / 2021.04.14 1953 UTC
Wind: from the WNW (300 degrees) at 5 MPH (4 KT):0
Visibility: 10 mile(s):0
Sky conditions: overcast
Temperature: 37.0 F (2.8 C)
Dew Point: 19.0 F (-7.2 C)
Relative Humidity: 47%
Pressure (altimeter): 30.25 in. Hg (1024 hPa)
ob: KSHR 141953Z AUTO 30004KT 10SM OVC037 03/M07 A3025 RMK AO2 SLP281 T00281072
cycle: 20

Station Type Date Time Source
KSHR TAF 2021/04/14 18:33 UTC NOAA

TAF KSHR 141730Z 1418/1518 33006KT P6SM FEW025 BKN045
FM150200 VRB05KT P6SM VCSH BKN025
FM150700 VRB04KT 3SM -SN BR SCT009 OVC015
FM151300 34005KT 2SM -SN BR OVC008

Example: see airport list